sensor_id;sensor_type;location;lat;lon;timestamp;pressure;altitude;pressure_sealevel;temperature;humidity
29239;BME280;16267;48.194;11.546;2023-12-07T00:01:53;96158.59;;;1.83;98.29
29239;BME280;16267;48.194;11.546;2023-12-07T00:04:19;96166.53;;;1.83;98.37
29239;BME280;16267;48.194;11.546;2023-12-07T00:06:45;96161.56;;;1.82;98.01
29239;BME280;16267;48.194;11.546;2023-12-07T00:09:11;96160.38;;;1.79;98.56
29239;BME280;16267;48.194;11.546;2023-12-07T00:11:37;96165.22;;;1.77;98.57
29239;BME280;16267;48.194;11.546;2023-12-07T00:14:03;96161.81;;;1.76;98.96
29239;BME280;16267;48.194;11.546;2023-12-07T00:16:29;96171.19;;;1.74;98.77
29239;BME280;16267;48.194;11.546;2023-12-07T00:18:55;96173.44;;;1.72;98.68
29239;BME280;16267;48.194;11.546;2023-12-07T00:21:20;96176.41;;;1.70;99.07
29239;BME280;16267;48.194;11.546;2023-12-07T00:23:46;96174.44;;;1.67;98.42
29239;BME280;16267;48.194;11.546;2023-12-07T00:26:12;96172.13;;;1.66;98.50
29239;BME280;16267;48.194;11.546;2023-12-07T00:28:38;96171.69;;;1.64;98.97
29239;BME280;16267;48.194;11.546;2023-12-07T00:31:03;96173.81;;;1.58;98.66
29239;BME280;16267;48.194;11.546;2023-12-07T00:33:29;96170.06;;;1.59;98.56
29239;BME280;16267;48.194;11.546;2023-12-07T00:35:55;96172.63;;;1.55;98.53
29239;BME280;16267;48.194;11.546;2023-12-07T00:38:31;96176.25;;;1.51;98.70
29239;BME280;16267;48.194;11.546;2023-12-07T00:40:58;96175.38;;;1.47;98.69
29239;BME280;16267;48.194;11.546;2023-12-07T00:43:23;96173.00;;;1.42;98.57
29239;BME280;16267;48.194;11.546;2023-12-07T00:45:49;96181.69;;;1.42;98.82
29239;BME280;16267;48.194;11.546;2023-12-07T00:48:15;96178.59;;;1.40;98.48
29239;BME280;16267;48.194;11.546;2023-12-07T00:50:41;96181.91;;;1.37;98.75
29239;BME280;16267;48.194;11.546;2023-12-07T00:53:07;96183.34;;;1.34;99.00
29239;BME280;16267;48.194;11.546;2023-12-07T00:55:32;96183.69;;;1.33;98.99
29239;BME280;16267;48.194;11.546;2023-12-07T00:57:58;96181.38;;;1.31;99.16
29239;BME280;16267;48.194;11.546;2023-12-07T01:00:25;96186.66;;;1.31;99.80
29239;BME280;16267;48.194;11.546;2023-12-07T01:02:51;96185.91;;;1.31;99.84
29239;BME280;16267;48.194;11.546;2023-12-07T01:05:17;96190.84;;;1.32;100.00
29239;BME280;16267;48.194;11.546;2023-12-07T01:07:43;96196.13;;;1.32;100.00
29239;BME280;16267;48.194;11.546;2023-12-07T01:10:08;96198.38;;;1.30;100.00
29239;BME280;16267;48.194;11.546;2023-12-07T01:12:34;96204.75;;;1.29;100.00
29239;BME280;16267;48.194;11.546;2023-12-07T01:15:01;96205.09;;;1.28;100.00
29239;BME280;16267;48.194;11.546;2023-12-07T01:17:27;96211.91;;;1.29;100.00
29239;BME280;16267;48.194;11.546;2023-12-07T01:19:52;96213.03;;;1.28;100.00
29239;BME280;16267;48.194;11.546;2023-12-07T01:22:18;96205.31;;;1.23;100.00
29239;BME280;16267;48.194;11.546;2023-12-07T01:24:44;96207.97;;;1.23;100.00
29239;BME280;16267;48.194;11.546;2023-12-07T01:27:10;96216.97;;;1.22;100.00
29239;BME280;16267;48.194;11.546;2023-12-07T01:29:35;96213.91;;;1.20;100.00
29239;BME280;16267;48.194;11.546;2023-12-07T01:32:01;96220.97;;;1.16;100.00
29239;BME280;16267;48.194;11.546;2023-12-07T01:34:27;96228.13;;;1.15;100.00
29239;BME280;16267;48.194;11.546;2023-12-07T01:36:52;96227.69;;;1.13;99.93
29239;BME280;16267;48.194;11.546;2023-12-07T01:39:18;96233.63;;;1.10;100.00
29239;BME280;16267;48.194;11.546;2023-12-07T01:41:44;96233.19;;;1.08;100.00
29239;BME280;16267;48.194;11.546;2023-12-07T01:44:10;96234.66;;;1.05;100.00
29239;BME280;16267;48.194;11.546;2023-12-07T01:46:36;96230.78;;;1.03;100.00
29239;BME280;16267;48.194;11.546;2023-12-07T01:49:02;96238.28;;;1.01;100.00
29239;BME280;16267;48.194;11.546;2023-12-07T01:51:29;96233.66;;;0.98;100.00
29239;BME280;16267;48.194;11.546;2023-12-07T01:53:55;96240.47;;;0.99;100.00
29239;BME280;16267;48.194;11.546;2023-12-07T01:56:23;96241.91;;;0.96;100.00
29239;BME280;16267;48.194;11.546;2023-12-07T01:58:51;96242.25;;;0.95;100.00
29239;BME280;16267;48.194;11.546;2023-12-07T02:01:17;96237.63;;;0.92;100.00
29239;BME280;16267;48.194;11.546;2023-12-07T02:03:43;96240.28;;;0.92;100.00
29239;BME280;16267;48.194;11.546;2023-12-07T02:06:09;96242.13;;;0.91;100.00
29239;BME280;16267;48.194;11.546;2023-12-07T02:08:36;96242.91;;;0.92;100.00
29239;BME280;16267;48.194;11.546;2023-12-07T02:11:08;96248.19;;;0.92;100.00
29239;BME280;16267;48.194;11.546;2023-12-07T02:13:36;96247.31;;;0.87;100.00
29239;BME280;16267;48.194;11.546;2023-12-07T02:16:13;96250.72;;;0.88;100.00
29239;BME280;16267;48.194;11.546;2023-12-07T02:19:24;96253.34;;;0.88;100.00
29239;BME280;16267;48.194;11.546;2023-12-07T02:21:56;96255.69;;;0.89;100.00
29239;BME280;16267;48.194;11.546;2023-12-07T02:24:27;96257.88;;;0.87;100.00
29239;BME280;16267;48.194;11.546;2023-12-07T02:26:54;96259.97;;;0.82;100.00
29239;BME280;16267;48.194;11.546;2023-12-07T02:29:20;96259.66;;;0.83;100.00
29239;BME280;16267;48.194;11.546;2023-12-07T02:31:46;96257.78;;;0.84;100.00
29239;BME280;16267;48.194;11.546;2023-12-07T02:34:12;96251.06;;;0.86;100.00
29239;BME280;16267;48.194;11.546;2023-12-07T02:36:39;96256.00;;;0.88;100.00
29239;BME280;16267;48.194;11.546;2023-12-07T02:39:06;96256.00;;;0.88;100.00
29239;BME280;16267;48.194;11.546;2023-12-07T02:41:35;96257.88;;;0.87;100.00
29239;BME280;16267;48.194;11.546;2023-12-07T02:44:02;96256.00;;;0.88;100.00
29239;BME280;16267;48.194;11.546;2023-12-07T02:46:29;96268.78;;;0.86;100.00
29239;BME280;16267;48.194;11.546;2023-12-07T02:48:54;96270.63;;;0.85;100.00
29239;BME280;16267;48.194;11.546;2023-12-07T02:51:22;96265.69;;;0.84;100.00
29239;BME280;16267;48.194;11.546;2023-12-07T02:53:47;96272.06;;;0.83;100.00
29239;BME280;16267;48.194;11.546;2023-12-07T02:56:13;96273.94;;;0.82;100.00
29239;BME280;16267;48.194;11.546;2023-12-07T02:58:39;96271.66;;;0.81;100.00
29239;BME280;16267;48.194;11.546;2023-12-07T03:01:05;96283.44;;;0.83;100.00
29239;BME280;16267;48.194;11.546;2023-12-07T03:03:31;96281.09;;;0.82;100.00
29239;BME280;16267;48.194;11.546;2023-12-07T03:05:56;96283.28;;;0.80;100.00
29239;BME280;16267;48.194;11.546;2023-12-07T03:08:23;96285.94;;;0.80;100.00
29239;BME280;16267;48.194;11.546;2023-12-07T03:10:49;96285.63;;;0.81;100.00
29239;BME280;16267;48.194;11.546;2023-12-07T03:13:14;96286.69;;;0.80;100.00
29239;BME280;16267;48.194;11.546;2023-12-07T03:15:41;96290.13;;;0.81;100.00
29239;BME280;16267;48.194;11.546;2023-12-07T03:18:06;96285.16;;;0.79;100.00
29239;BME280;16267;48.194;11.546;2023-12-07T03:20:33;96286.38;;;0.82;100.00
29239;BME280;16267;48.194;11.546;2023-12-07T03:22:59;96292.13;;;0.84;100.00
29239;BME280;16267;48.194;11.546;2023-12-07T03:25:25;96282.63;;;0.83;100.00
29239;BME280;16267;48.194;11.546;2023-12-07T03:27:51;96282.63;;;0.83;100.00
29239;BME280;16267;48.194;11.546;2023-12-07T03:30:16;96287.72;;;0.88;100.00
29239;BME280;16267;48.194;11.546;2023-12-07T03:32:43;96291.13;;;0.88;100.00
29239;BME280;16267;48.194;11.546;2023-12-07T03:35:08;96297.19;;;0.89;100.00
29239;BME280;16267;48.194;11.546;2023-12-07T03:37:35;96290.03;;;0.89;100.00
29239;BME280;16267;48.194;11.546;2023-12-07T03:40:01;96291.91;;;0.89;100.00
29239;BME280;16267;48.194;11.546;2023-12-07T03:42:29;96292.22;;;0.87;100.00
29239;BME280;16267;48.194;11.546;2023-12-07T03:44:55;96300.25;;;0.91;100.00
29239;BME280;16267;48.194;11.546;2023-12-07T03:47:21;96292.34;;;0.91;100.00
29239;BME280;16267;48.194;11.546;2023-12-07T03:49:47;96297.97;;;0.89;100.00
29239;BME280;16267;48.194;11.546;2023-12-07T03:52:12;96286.63;;;0.89;100.00
29239;BME280;16267;48.194;11.546;2023-12-07T03:54:38;96287.84;;;0.92;100.00
29239;BME280;16267;48.194;11.546;2023-12-07T03:57:04;96290.47;;;0.92;100.00
29239;BME280;16267;48.194;11.546;2023-12-07T03:59:30;96294.97;;;0.91;100.00
29239;BME280;16267;48.194;11.546;2023-12-07T04:01:56;96291.56;;;0.91;100.00
29239;BME280;16267;48.194;11.546;2023-12-07T04:04:22;96290.03;;;0.89;100.00
29239;BME280;16267;48.194;11.546;2023-12-07T04:06:47;96290.81;;;0.90;100.00
29239;BME280;16267;48.194;11.546;2023-12-07T04:09:13;96298.41;;;0.92;100.00
29239;BME280;16267;48.194;11.546;2023-12-07T04:11:39;96297.63;;;0.91;100.00
29239;BME280;16267;48.194;11.546;2023-12-07T04:14:05;96301.38;;;0.90;100.00
29239;BME280;16267;48.194;11.546;2023-12-07T04:16:31;96298.72;;;0.90;100.00
29239;BME280;16267;48.194;11.546;2023-12-07T04:18:56;96306.97;;;0.88;99.41
29239;BME280;16267;48.194;11.546;2023-12-07T04:21:22;96313.72;;;0.86;99.17
29239;BME280;16267;48.194;11.546;2023-12-07T04:23:48;96299.28;;;0.83;99.08
29239;BME280;16267;48.194;11.546;2023-12-07T04:26:13;96301.38;;;0.78;99.39
29239;BME280;16267;48.194;11.546;2023-12-07T04:28:41;96295.53;;;0.72;99.39
29239;BME280;16267;48.194;11.546;2023-12-07T04:31:06;96303.44;;;0.72;98.57
29239;BME280;16267;48.194;11.546;2023-12-07T04:33:32;96310.28;;;0.73;98.96
29239;BME280;16267;48.194;11.546;2023-12-07T04:35:58;96306.09;;;0.72;99.02
29239;BME280;16267;48.194;11.546;2023-12-07T04:38:24;96310.59;;;0.72;98.69
29239;BME280;16267;48.194;11.546;2023-12-07T04:40:49;96317.63;;;0.68;98.08
29239;BME280;16267;48.194;11.546;2023-12-07T04:43:15;96315.19;;;0.62;97.75
29239;BME280;16267;48.194;11.546;2023-12-07T04:45:41;96318.28;;;0.64;97.84
29239;BME280;16267;48.194;11.546;2023-12-07T04:48:07;96315.50;;;0.61;97.83
29239;BME280;16267;48.194;11.546;2023-12-07T04:50:33;96323.78;;;0.59;97.52
29239;BME280;16267;48.194;11.546;2023-12-07T04:52:59;96332.47;;;0.60;98.00
29239;BME280;16267;48.194;11.546;2023-12-07T04:55:24;96333.88;;;0.57;98.28
29239;BME280;16267;48.194;11.546;2023-12-07T04:57:51;96328.50;;;0.54;98.46
29239;BME280;16267;48.194;11.546;2023-12-07T05:00:18;96335.31;;;0.55;98.41
29239;BME280;16267;48.194;11.546;2023-12-07T05:02:43;96326.81;;;0.49;99.33
29239;BME280;16267;48.194;11.546;2023-12-07T05:05:09;96329.91;;;0.51;99.69
29239;BME280;16267;48.194;11.546;2023-12-07T05:07:37;96326.16;;;0.52;99.81
29239;BME280;16267;48.194;11.546;2023-12-07T05:10:03;96328.03;;;0.52;98.74
29239;BME280;16267;48.194;11.546;2023-12-07T05:12:29;96323.53;;;0.52;99.04
29239;BME280;16267;48.194;11.546;2023-12-07T05:14:55;96326.50;;;0.51;98.13
29239;BME280;16267;48.194;11.546;2023-12-07T05:17:20;96326.06;;;0.49;99.16
29239;BME280;16267;48.194;11.546;2023-12-07T05:19:46;96329.47;;;0.49;98.79
29239;BME280;16267;48.194;11.546;2023-12-07T05:22:14;96321.44;;;0.46;98.17
29239;BME280;16267;48.194;11.546;2023-12-07T05:24:40;96322.53;;;0.44;98.72
29239;BME280;16267;48.194;11.546;2023-12-07T05:27:06;96327.81;;;0.44;99.20
29239;BME280;16267;48.194;11.546;2023-12-07T05:29:32;96327.03;;;0.44;98.66
29239;BME280;16267;48.194;11.546;2023-12-07T05:31:58;96327.38;;;0.42;97.98
29239;BME280;16267;48.194;11.546;2023-12-07T05:34:23;96324.38;;;0.44;97.49
29239;BME280;16267;48.194;11.546;2023-12-07T05:36:49;96320.66;;;0.45;98.13
29239;BME280;16267;48.194;11.546;2023-12-07T05:39:15;96323.97;;;0.42;97.83
29239;BME280;16267;48.194;11.546;2023-12-07T05:41:43;96325.19;;;0.44;98.14
29239;BME280;16267;48.194;11.546;2023-12-07T05:44:09;96328.91;;;0.43;97.57
29239;BME280;16267;48.194;11.546;2023-12-07T05:46:35;96323.16;;;0.41;96.96
29239;BME280;16267;48.194;11.546;2023-12-07T05:49:04;96327.25;;;0.39;97.04
29239;BME280;16267;48.194;11.546;2023-12-07T05:51:30;96323.03;;;0.38;97.30
29239;BME280;16267;48.194;11.546;2023-12-07T05:53:57;96318.88;;;0.37;96.85
29239;BME280;16267;48.194;11.546;2023-12-07T05:56:23;96317.66;;;0.34;96.85
29239;BME280;16267;48.194;11.546;2023-12-07T05:58:50;96329.28;;;0.33;96.43
29239;BME280;16267;48.194;11.546;2023-12-07T06:01:19;96319.06;;;0.32;96.84
29239;BME280;16267;48.194;11.546;2023-12-07T06:03:45;96319.38;;;0.30;97.05
29239;BME280;16267;48.194;11.546;2023-12-07T06:06:11;96318.63;;;0.30;97.38
29239;BME280;16267;48.194;11.546;2023-12-07T06:08:38;96312.13;;;0.27;97.23
29239;BME280;16267;48.194;11.546;2023-12-07T06:11:04;96315.09;;;0.26;96.79
29239;BME280;16267;48.194;11.546;2023-12-07T06:13:29;96312.78;;;0.24;96.66
29239;BME280;16267;48.194;11.546;2023-12-07T06:15:55;96317.59;;;0.22;96.09
29239;BME280;16267;48.194;11.546;2023-12-07T06:18:21;96319.16;;;0.23;96.03
29239;BME280;16267;48.194;11.546;2023-12-07T06:20:47;96311.13;;;0.19;96.03
29239;BME280;16267;48.194;11.546;2023-12-07T06:23:13;96313.75;;;0.19;96.52
29239;BME280;16267;48.194;11.546;2023-12-07T06:25:39;96324.31;;;0.19;96.12
29239;BME280;16267;48.194;11.546;2023-12-07T06:28:05;96321.69;;;0.19;95.88
29239;BME280;16267;48.194;11.546;2023-12-07T06:30:31;96323.72;;;0.14;94.85
29239;BME280;16267;48.194;11.546;2023-12-07T06:32:57;96324.72;;;0.09;94.50
29239;BME280;16267;48.194;11.546;2023-12-07T06:35:23;96331.84;;;0.09;94.77
29239;BME280;16267;48.194;11.546;2023-12-07T06:37:49;96328.66;;;0.03;94.55
29239;BME280;16267;48.194;11.546;2023-12-07T06:40:15;96332.38;;;0.02;95.41
29239;BME280;16267;48.194;11.546;2023-12-07T06:42:40;96339.50;;;0.02;95.83
29239;BME280;16267;48.194;11.546;2023-12-07T06:45:07;96333.47;;;0.01;95.49
29239;BME280;16267;48.194;11.546;2023-12-07T06:47:37;96333.47;;;0.01;95.50
29239;BME280;16267;48.194;11.546;2023-12-07T06:50:05;96337.97;;;0.01;95.33
29239;BME280;16267;48.194;11.546;2023-12-07T06:52:36;96344.03;;;0.01;95.28
29239;BME280;16267;48.194;11.546;2023-12-07T06:55:02;96349.19;;;-0.03;94.64
29239;BME280;16267;48.194;11.546;2023-12-07T06:57:28;96354.47;;;-0.03;94.48
29239;BME280;16267;48.194;11.546;2023-12-07T06:59:54;96350.59;;;-0.05;94.66
29239;BME280;16267;48.194;11.546;2023-12-07T07:02:19;96350.91;;;-0.07;94.37
29239;BME280;16267;48.194;11.546;2023-12-07T07:04:46;96348.59;;;-0.08;94.35
29239;BME280;16267;48.194;11.546;2023-12-07T07:07:15;96348.44;;;-0.12;94.62
29239;BME280;16267;48.194;11.546;2023-12-07T07:09:41;96346.28;;;-0.10;94.33
29239;BME280;16267;48.194;11.546;2023-12-07T07:12:07;96352.97;;;-0.12;94.36
29239;BME280;16267;48.194;11.546;2023-12-07T07:14:33;96353.72;;;-0.12;94.56
29239;BME280;16267;48.194;11.546;2023-12-07T07:16:59;96350.31;;;-0.12;94.61
29239;BME280;16267;48.194;11.546;2023-12-07T07:19:26;96351.09;;;-0.12;94.81
29239;BME280;16267;48.194;11.546;2023-12-07T07:21:51;96350.78;;;-0.10;94.85
29239;BME280;16267;48.194;11.546;2023-12-07T07:24:17;96344.72;;;-0.11;94.87
29239;BME280;16267;48.194;11.546;2023-12-07T07:26:43;96349.69;;;-0.09;94.91
29239;BME280;16267;48.194;11.546;2023-12-07T07:29:09;96352.66;;;-0.11;94.51
29239;BME280;16267;48.194;11.546;2023-12-07T07:31:35;96361.34;;;-0.10;93.83
29239;BME280;16267;48.194;11.546;2023-12-07T07:34:02;96362.75;;;-0.13;93.40
29239;BME280;16267;48.194;11.546;2023-12-07T07:36:28;96361.34;;;-0.10;93.37
29239;BME280;16267;48.194;11.546;2023-12-07T07:38:57;96364.75;;;-0.10;93.77
29239;BME280;16267;48.194;11.546;2023-12-07T07:41:23;96364.75;;;-0.10;93.94
29239;BME280;16267;48.194;11.546;2023-12-07T07:43:49;96361.78;;;-0.08;93.74
29239;BME280;16267;48.194;11.546;2023-12-07T07:46:16;96369.38;;;-0.07;94.16
29239;BME280;16267;48.194;11.546;2023-12-07T07:48:41;96361.47;;;-0.07;94.17
29239;BME280;16267;48.194;11.546;2023-12-07T07:51:07;96356.63;;;-0.05;94.48
29239;BME280;16267;48.194;11.546;2023-12-07T07:53:33;96363.91;;;-0.02;94.18
29239;BME280;16267;48.194;11.546;2023-12-07T07:56:01;96357.97;;;0.02;94.31
29239;BME280;16267;48.194;11.546;2023-12-07T07:58:27;96362.63;;;0.05;94.43
29239;BME280;16267;48.194;11.546;2023-12-07T08:00:52;96359.66;;;0.06;94.57
29239;BME280;16267;48.194;11.546;2023-12-07T08:03:18;96365.38;;;0.08;94.68
29239;BME280;16267;48.194;11.546;2023-12-07T08:05:44;96366.28;;;0.12;94.54
29239;BME280;16267;48.194;11.546;2023-12-07T08:08:10;96361.47;;;0.14;94.78
29239;BME280;16267;48.194;11.546;2023-12-07T08:10:36;96357.84;;;0.19;94.74
29239;BME280;16267;48.194;11.546;2023-12-07T08:13:01;96359.84;;;0.22;95.29
29239;BME280;16267;48.194;11.546;2023-12-07T08:15:27;96357.66;;;0.24;95.15
29239;BME280;16267;48.194;11.546;2023-12-07T08:17:53;96354.34;;;0.27;95.15
29239;BME280;16267;48.194;11.546;2023-12-07T08:20:19;96361.97;;;0.29;94.96
29239;BME280;16267;48.194;11.546;2023-12-07T08:22:44;96354.50;;;0.31;94.67
29239;BME280;16267;48.194;11.546;2023-12-07T08:25:11;96347.00;;;0.33;94.82
29239;BME280;16267;48.194;11.546;2023-12-07T08:27:38;96357.25;;;0.34;94.92
29239;BME280;16267;48.194;11.546;2023-12-07T08:30:05;96359.56;;;0.36;94.76
29239;BME280;16267;48.194;11.546;2023-12-07T08:32:31;96359.69;;;0.39;94.75
29239;BME280;16267;48.194;11.546;2023-12-07T08:34:57;96363.56;;;0.42;94.63
29239;BME280;16267;48.194;11.546;2023-12-07T08:37:23;96359.50;;;0.44;94.59
29239;BME280;16267;48.194;11.546;2023-12-07T08:39:49;96354.66;;;0.47;94.64
29239;BME280;16267;48.194;11.546;2023-12-07T08:42:14;96346.88;;;0.50;95.07
29239;BME280;16267;48.194;11.546;2023-12-07T08:44:40;96348.84;;;0.53;94.81
29239;BME280;16267;48.194;11.546;2023-12-07T08:47:06;96350.84;;;0.56;95.13
29239;BME280;16267;48.194;11.546;2023-12-07T08:49:32;96346.44;;;0.60;94.92
29239;BME280;16267;48.194;11.546;2023-12-07T08:51:59;96348.78;;;0.62;95.35
29239;BME280;16267;48.194;11.546;2023-12-07T08:54:25;96349.66;;;0.66;94.89
29239;BME280;16267;48.194;11.546;2023-12-07T08:56:51;96356.16;;;0.69;95.19
29239;BME280;16267;48.194;11.546;2023-12-07T08:59:17;96348.38;;;0.72;95.30
29239;BME280;16267;48.194;11.546;2023-12-07T09:01:43;96346.59;;;0.76;95.03
29239;BME280;16267;48.194;11.546;2023-12-07T09:04:08;96345.63;;;0.81;95.24
29239;BME280;16267;48.194;11.546;2023-12-07T09:06:36;96350.25;;;0.84;95.44
29239;BME280;16267;48.194;11.546;2023-12-07T09:09:03;96347.06;;;0.91;95.41
29239;BME280;16267;48.194;11.546;2023-12-07T09:11:30;96344.66;;;0.98;95.09
29239;BME280;16267;48.194;11.546;2023-12-07T09:13:56;96338.38;;;1.02;94.95
29239;BME280;16267;48.194;11.546;2023-12-07T09:16:22;96341.81;;;1.15;94.67
29239;BME280;16267;48.194;11.546;2023-12-07T09:18:48;96337.50;;;1.35;94.72
29239;BME280;16267;48.194;11.546;2023-12-07T09:21:14;96332.88;;;1.56;94.23
29239;BME280;16267;48.194;11.546;2023-12-07T09:23:40;96335.63;;;1.60;93.45
29239;BME280;16267;48.194;11.546;2023-12-07T09:26:05;96333.09;;;1.64;91.92
29239;BME280;16267;48.194;11.546;2023-12-07T09:28:32;96338.81;;;1.66;91.40
29239;BME280;16267;48.194;11.546;2023-12-07T09:31:00;96333.97;;;1.68;91.38
29239;BME280;16267;48.194;11.546;2023-12-07T09:33:26;96329.88;;;1.70;91.20
29239;BME280;16267;48.194;11.546;2023-12-07T09:35:53;96337.78;;;1.83;90.49
29239;BME280;16267;48.194;11.546;2023-12-07T09:38:19;96340.59;;;2.14;89.69
29239;BME280;16267;48.194;11.546;2023-12-07T09:40:46;96332.72;;;2.46;87.66
29239;BME280;16267;48.194;11.546;2023-12-07T09:43:13;96331.13;;;2.41;87.05
29239;BME280;16267;48.194;11.546;2023-12-07T09:45:39;96330.53;;;2.48;86.17
29239;BME280;16267;48.194;11.546;2023-12-07T09:48:05;96322.97;;;2.78;84.77
29239;BME280;16267;48.194;11.546;2023-12-07T09:50:31;96333.47;;;3.54;83.33
29239;BME280;16267;48.194;11.546;2023-12-07T09:52:58;96326.09;;;3.63;81.68
29239;BME280;16267;48.194;11.546;2023-12-07T09:55:24;96318.50;;;3.81;79.04
29239;BME280;16267;48.194;11.546;2023-12-07T09:57:53;96320.59;;;3.72;76.90
29239;BME280;16267;48.194;11.546;2023-12-07T10:00:22;96303.03;;;3.67;77.20
29239;BME280;16267;48.194;11.546;2023-12-07T10:02:48;96317.09;;;3.87;75.35
29239;BME280;16267;48.194;11.546;2023-12-07T10:05:15;96304.81;;;3.98;73.13
29239;BME280;16267;48.194;11.546;2023-12-07T10:07:49;96299.59;;;3.83;69.13
29239;BME280;16267;48.194;11.546;2023-12-07T10:10:17;96301.53;;;4.24;69.94
29239;BME280;16267;48.194;11.546;2023-12-07T10:12:54;96292.81;;;4.24;71.41
29239;BME280;16267;48.194;11.546;2023-12-07T10:15:22;96299.16;;;4.39;71.58
29239;BME280;16267;48.194;11.546;2023-12-07T10:17:56;96295.44;;;4.43;69.77
29239;BME280;16267;48.194;11.546;2023-12-07T10:20:26;96293.19;;;4.45;67.74
29239;BME280;16267;48.194;11.546;2023-12-07T10:23:06;96297.72;;;4.64;69.28
29239;BME280;16267;48.194;11.546;2023-12-07T10:25:37;96294.63;;;5.08;69.78
29239;BME280;16267;48.194;11.546;2023-12-07T10:28:03;96290.50;;;5.37;68.51
29239;BME280;16267;48.194;11.546;2023-12-07T10:30:37;96295.50;;;5.66;67.22
29239;BME280;16267;48.194;11.546;2023-12-07T10:33:05;96289.97;;;6.45;65.26
29239;BME280;16267;48.194;11.546;2023-12-07T10:35:32;96283.72;;;7.09;64.08
29239;BME280;16267;48.194;11.546;2023-12-07T10:37:59;96281.28;;;7.41;60.19
29239;BME280;16267;48.194;11.546;2023-12-07T10:40:25;96284.19;;;7.80;60.04
29239;BME280;16267;48.194;11.546;2023-12-07T10:42:56;96275.56;;;8.12;60.18
29239;BME280;16267;48.194;11.546;2023-12-07T10:45:29;96270.34;;;8.55;55.22
29239;BME280;16267;48.194;11.546;2023-12-07T10:48:04;96273.09;;;9.12;56.94
29239;BME280;16267;48.194;11.546;2023-12-07T10:50:37;96256.06;;;9.94;51.88
29239;BME280;16267;48.194;11.546;2023-12-07T10:55:56;96244.78;;;10.98;39.75
29239;BME280;16267;48.194;11.546;2023-12-07T10:58:25;96247.09;;;11.45;45.15
29239;BME280;16267;48.194;11.546;2023-12-07T11:00:55;96244.72;;;11.50;45.80
29239;BME280;16267;48.194;11.546;2023-12-07T11:03:23;96248.13;;;11.54;45.83
29239;BME280;16267;48.194;11.546;2023-12-07T11:05:50;96245.34;;;11.24;45.72
29239;BME280;16267;48.194;11.546;2023-12-07T11:08:35;96240.97;;;10.96;41.72
29239;BME280;16267;48.194;11.546;2023-12-07T11:11:15;96245.94;;;10.97;41.93
29239;BME280;16267;48.194;11.546;2023-12-07T11:13:52;96233.97;;;10.57;41.87
29239;BME280;16267;48.194;11.546;2023-12-07T11:16:33;96242.50;;;10.37;44.21
29239;BME280;16267;48.194;11.546;2023-12-07T11:19:00;96236.78;;;10.32;44.47
29239;BME280;16267;48.194;11.546;2023-12-07T11:21:26;96237.44;;;10.50;44.32
29239;BME280;16267;48.194;11.546;2023-12-07T11:23:53;96232.44;;;10.52;44.04
29239;BME280;16267;48.194;11.546;2023-12-07T11:26:23;96233.63;;;11.00;43.49
29239;BME280;16267;48.194;11.546;2023-12-07T11:28:50;96231.91;;;11.24;42.91
29239;BME280;16267;48.194;11.546;2023-12-07T11:31:16;96229.94;;;10.83;42.42
29239;BME280;16267;48.194;11.546;2023-12-07T11:33:43;96216.88;;;10.22;42.89
29239;BME280;16267;48.194;11.546;2023-12-07T11:36:10;96219.44;;;9.59;42.62
29239;BME280;16267;48.194;11.546;2023-12-07T11:41:44;96216.44;;;8.46;43.11
29239;BME280;16267;48.194;11.546;2023-12-07T11:44:10;96215.91;;;7.94;41.73
29239;BME280;16267;48.194;11.546;2023-12-07T11:46:39;96212.31;;;7.61;44.34
29239;BME280;16267;48.194;11.546;2023-12-07T11:49:05;96204.59;;;7.38;46.80
29239;BME280;16267;48.194;11.546;2023-12-07T11:51:36;96208.59;;;7.07;47.23
29239;BME280;16267;48.194;11.546;2023-12-07T11:54:02;96208.84;;;6.87;48.12
29239;BME280;16267;48.194;11.546;2023-12-07T11:56:28;96202.56;;;6.65;46.20
29239;BME280;16267;48.194;11.546;2023-12-07T11:58:54;96201.63;;;6.47;48.12
29239;BME280;16267;48.194;11.546;2023-12-07T12:01:24;96204.59;;;6.35;50.24
29239;BME280;16267;48.194;11.546;2023-12-07T12:03:49;96198.72;;;6.22;50.32
29239;BME280;16267;48.194;11.546;2023-12-07T12:06:15;96198.22;;;6.09;50.50
29239;BME280;16267;48.194;11.546;2023-12-07T12:08:41;96200.72;;;5.95;50.73
29239;BME280;16267;48.194;11.546;2023-12-07T12:11:08;96197.91;;;5.84;51.43
29239;BME280;16267;48.194;11.546;2023-12-07T12:13:35;96199.69;;;5.73;46.82
29239;BME280;16267;48.194;11.546;2023-12-07T12:16:02;96197.31;;;5.64;45.98
29239;BME280;16267;48.194;11.546;2023-12-07T12:18:28;96198.00;;;5.57;48.05
29239;BME280;16267;48.194;11.546;2023-12-07T12:20:54;96192.53;;;5.47;49.07
29239;BME280;16267;48.194;11.546;2023-12-07T12:23:21;96188.25;;;5.39;48.96
29239;BME280;16267;48.194;11.546;2023-12-07T12:25:48;96184.25;;;5.25;49.77
29239;BME280;16267;48.194;11.546;2023-12-07T12:28:19;96182.63;;;5.17;47.38
29239;BME280;16267;48.194;11.546;2023-12-07T12:30:47;96169.56;;;5.05;47.81
29239;BME280;16267;48.194;11.546;2023-12-07T12:33:14;96164.44;;;4.92;47.19
29239;BME280;16267;48.194;11.546;2023-12-07T12:35:40;96155.28;;;4.90;47.34
29239;BME280;16267;48.194;11.546;2023-12-07T12:38:10;96161.72;;;4.89;50.65
29239;BME280;16267;48.194;11.546;2023-12-07T12:40:37;96172.31;;;4.85;50.53
29239;BME280;16267;48.194;11.546;2023-12-07T12:43:03;96177.63;;;4.85;50.22
29239;BME280;16267;48.194;11.546;2023-12-07T12:45:30;96184.72;;;4.78;49.60
29239;BME280;16267;48.194;11.546;2023-12-07T12:47:56;96178.53;;;4.70;49.18
29239;BME280;16267;48.194;11.546;2023-12-07T12:50:40;96165.94;;;4.67;50.72
29239;BME280;16267;48.194;11.546;2023-12-07T12:53:09;96157.81;;;4.56;50.52
29239;BME280;16267;48.194;11.546;2023-12-07T12:55:40;96151.25;;;4.50;50.59
29239;BME280;16267;48.194;11.546;2023-12-07T12:58:08;96154.94;;;4.42;51.21
29239;BME280;16267;48.194;11.546;2023-12-07T13:00:38;96157.59;;;4.42;50.76
29239;BME280;16267;48.194;11.546;2023-12-07T13:03:06;96153.75;;;4.39;51.08